Time;durP1;ratioP1;P1;durP2;ratioP2;P2;SDS_P1;SDS_P2;PMS_P1;PMS_P2;Temp;Humidity;BMP_temperature;BMP_pressure;BME280_temperature;BME280_humidity;BME280_pressure;Samples;Min_cycle;Max_cycle;Signal;HPM_P1;HPM_P2
2023/04/02 00:00:11;;;;;;;3.63;2.63;;;;;;;9.34;83.01;99364.31;5086398;28;20044;-70
2023/04/02 00:02:55;;;;;;;5.47;2.75;;;;;;;9.28;83.23;99362.25;5086295;28;20048;-69
2023/04/02 00:05:24;;;;;;;3.15;2.47;;;;;;;9.29;83.44;99363.94;5086607;28;20028;-69
2023/04/02 00:07:52;;;;;;;4.22;2.75;;;;;;;9.27;84.06;99371.25;5085707;28;20060;-70
2023/04/02 00:10:45;;;;;;;5.20;3.05;;;;;;;9.21;84.58;99369.19;5086399;28;20665;-69
2023/04/02 00:13:11;;;;;;;5.00;2.55;;;;;;;9.15;84.96;99375.13;5065760;28;20067;-69
2023/04/02 00:15:38;;;;;;;2.88;2.08;;;;;;;9.07;85.52;99370.50;5086710;28;20052;-70
2023/04/02 00:18:04;;;;;;;4.07;2.53;;;;;;;8.90;86.07;99359.78;5067031;28;20024;-69
2023/04/02 00:20:35;;;;;;;6.20;3.30;;;;;;;8.98;86.43;99363.41;5083672;28;20477;-70
2023/04/02 00:23:02;;;;;;;4.35;2.38;;;;;;;9.14;86.24;99374.31;5081473;28;20075;-70
2023/04/02 00:25:32;;;;;;;3.60;2.55;;;;;;;9.17;86.02;99378.50;5084187;28;20798;-70
2023/04/02 00:27:58;;;;;;;2.97;2.28;;;;;;;9.14;86.28;99386.81;5083860;28;20032;-70
2023/04/02 00:30:24;;;;;;;3.28;2.08;;;;;;;9.10;86.53;99388.13;5083726;28;20027;-69
2023/04/02 00:32:51;;;;;;;5.10;2.97;;;;;;;8.79;86.76;99338.56;5083642;28;20507;-70
2023/04/02 00:35:27;;;;;;;3.38;2.80;;;;;;;9.16;86.72;99388.34;5085581;28;20032;-71
2023/04/02 00:37:53;;;;;;;4.40;2.17;;;;;;;9.15;86.53;99377.78;5085235;28;20097;-70
2023/04/02 00:40:26;;;;;;;3.47;2.60;;;;;;;9.37;85.91;99388.09;5066706;28;20368;-70
2023/04/02 00:42:55;;;;;;;3.15;2.30;;;;;;;9.29;86.85;99390.69;5066118;28;20024;-70
2023/04/02 00:45:27;;;;;;;4.32;2.67;;;;;;;9.20;86.94;99371.00;5085778;28;20019;-70
2023/04/02 00:47:55;;;;;;;4.90;2.35;;;;;;;9.39;87.56;99395.97;5079428;28;20042;-70
2023/04/02 00:50:30;;;;;;;2.17;1.88;;;;;;;9.36;88.28;99396.28;5063383;28;20032;-71
2023/04/02 00:52:58;;;;;;;2.83;2.00;;;;;;;9.21;89.45;99393.25;5082629;28;20055;-70
2023/04/02 00:55:32;;;;;;;3.05;1.75;;;;;;;9.34;89.35;99385.72;5064833;28;20039;-70
2023/04/02 00:57:59;;;;;;;3.13;2.58;;;;;;;9.41;89.76;99394.84;5082581;28;20023;-70
2023/04/02 01:00:32;;;;;;;2.33;1.70;;;;;;;9.41;90.13;99397.50;5060266;28;20040;-70
2023/04/02 01:03:27;;;;;;;2.72;1.73;;;;;;;9.51;90.69;99400.16;5056738;28;20987;-70
2023/04/02 01:06:14;;;;;;;1.60;1.45;;;;;;;9.46;89.94;99387.22;5082323;28;20024;-70
2023/04/02 01:08:43;;;;;;;2.95;1.40;;;;;;;9.63;90.49;99405.13;5084087;28;20028;-76
2023/04/02 01:11:30;;;;;;;1.70;1.30;;;;;;;9.63;90.80;99402.44;5087876;28;20062;-75
2023/04/02 01:13:55;;;;;;;2.13;1.80;;;;;;;9.69;90.50;99403.66;5087379;28;20425;-74
2023/04/02 01:16:30;;;;;;;3.03;1.50;;;;;;;9.68;90.38;99389.47;5086302;28;20028;-74
2023/04/02 01:19:22;;;;;;;2.22;1.50;;;;;;;9.71;90.02;99385.63;5086725;28;20032;-74
2023/04/02 01:21:56;;;;;;;3.55;1.40;;;;;;;9.84;89.84;99397.66;5084416;28;20093;-74
2023/04/02 01:24:28;;;;;;;2.00;1.40;;;;;;;9.81;89.68;99392.59;5068056;28;20052;-76
2023/04/02 01:26:54;;;;;;;1.42;1.20;;;;;;;9.90;89.33;99405.06;5087468;28;20020;-75
2023/04/02 01:29:36;;;;;;;1.77;1.58;;;;;;;9.83;89.37;99390.59;5067622;28;20027;-76
2023/04/02 01:32:22;;;;;;;2.45;1.30;;;;;;;9.87;89.91;99404.53;5066662;28;20020;-75
2023/04/02 01:34:49;;;;;;;2.17;1.75;;;;;;;9.76;90.45;99400.25;5084032;28;20024;-76
2023/04/02 01:37:51;;;;;;;2.08;1.55;;;;;;;9.86;90.29;99398.34;5085953;28;20097;-75
2023/04/02 01:40:42;;;;;;;2.13;1.35;;;;;;;9.86;90.50;99398.34;5086146;28;20028;-75
2023/04/02 01:43:35;;;;;;;1.83;1.08;;;;;;;9.99;89.44;99393.44;5085977;28;20028;-75
2023/04/02 01:46:43;;;;;;;2.08;1.50;;;;;;;9.98;89.58;99399.78;5085645;28;20096;-77
2023/04/02 01:49:14;;;;;;;1.17;1.08;;;;;;;10.03;88.77;99388.63;4984801;28;20041;-73
2023/04/02 01:51:45;;;;;;;1.92;1.58;;;;;;;9.99;89.88;99401.47;4984046;28;20108;-71
2023/04/02 01:54:15;;;;;;;2.15;1.40;;;;;;;9.96;90.41;99395.59;5038075;28;20027;-71
2023/04/02 01:56:41;;;;;;;1.58;1.33;;;;;;;10.00;90.59;99405.00;5084880;28;20487;-70
2023/04/02 01:59:09;;;;;;;1.45;0.93;;;;;;;9.82;90.86;99388.94;5084867;28;20055;-70
2023/04/02 02:01:44;;;;;;;2.13;1.42;;;;;;;9.94;90.70;99414.50;5085314;28;20085;-71
2023/04/02 02:04:14;;;;;;;3.78;1.30;;;;;;;9.80;91.17;99387.41;5085178;28;20043;-71
2023/04/02 02:06:41;;;;;;;1.55;0.98;;;;;;;9.85;90.85;99383.28;5084378;28;20111;-70
2023/04/02 02:09:11;;;;;;;1.10;1.00;;;;;;;9.95;90.61;99391.22;5084906;28;20036;-70
2023/04/02 02:11:37;;;;;;;1.42;1.13;;;;;;;10.09;89.77;99418.34;5085462;28;20032;-71
2023/04/02 02:14:17;;;;;;;0.90;0.80;;;;;;;9.98;90.33;99391.75;5085292;28;20726;-70
2023/04/02 02:16:45;;;;;;;1.08;0.98;;;;;;;9.95;90.19;99386.72;5066892;28;20378;-70
2023/04/02 02:19:35;;;;;;;1.15;1.05;;;;;;;10.10;90.03;99406.66;5085194;28;20074;-70
2023/04/02 02:22:25;;;;;;;1.08;1.00;;;;;;;10.06;90.14;99401.72;5082329;28;20028;-70
2023/04/02 02:24:51;;;;;;;0.90;0.88;;;;;;;9.96;91.08;99406.31;5084084;28;20024;-70
2023/04/02 02:27:22;;;;;;;1.35;1.20;;;;;;;9.98;90.74;99399.78;5085007;28;20124;-70
2023/04/02 02:30:13;;;;;;;1.73;1.02;;;;;;;9.98;90.78;99398.94;5084394;28;20527;-70
2023/04/02 02:32:53;;;;;;;0.98;0.82;;;;;;;10.03;90.39;99399.34;5084548;28;20034;-70
2023/04/02 02:35:27;;;;;;;0.85;0.85;;;;;;;9.95;90.56;99386.72;5085186;28;20418;-70
2023/04/02 02:38:01;;;;;;;;;;;;;;;10.05;90.02;99400.88;5066929;28;20044;-70
2023/04/02 02:40:36;;;;;;;1.73;1.23;;;;;;;9.90;90.97;99402.38;5067529;28;20276;-70
2023/04/02 02:43:05;;;;;;;1.13;1.02;;;;;;;9.96;91.24;99412.50;5084370;28;20028;-70
2023/04/02 02:45:36;;;;;;;1.33;1.20;;;;;;;9.99;91.31;99408.69;5084868;28;20036;-70
2023/04/02 02:48:08;;;;;;;1.38;1.02;;;;;;;9.92;91.20;99403.09;5066103;28;20055;-70
2023/04/02 02:50:34;;;;;;;2.05;1.58;;;;;;;9.94;91.53;99403.78;5084996;28;20020;-70
2023/04/02 02:53:03;;;;;;;1.70;1.10;;;;;;;10.01;91.28;99412.03;5083597;28;20027;-70
2023/04/02 02:55:33;;;;;;;2.13;1.23;;;;;;;9.94;91.17;99387.72;5065981;28;20085;-70
2023/04/02 02:58:12;;;;;;;1.40;1.30;;;;;;;9.90;91.58;99407.75;5083684;28;20028;-70
2023/04/02 03:00:39;;;;;;;1.75;1.30;;;;;;;9.75;92.33;99387.00;5084377;28;20038;-71
2023/04/02 03:03:20;;;;;;;1.50;1.23;;;;;;;9.85;92.51;99393.97;5066154;28;20817;-70
2023/04/02 03:05:52;;;;;;;2.42;1.50;;;;;;;10.07;91.30;99414.13;5064434;28;20032;-70
2023/04/02 03:08:39;;;;;;;1.83;1.50;;;;;;;10.08;91.27;99413.97;5082168;28;20022;-70
2023/04/02 03:11:18;;;;;;;1.60;1.20;;;;;;;9.94;91.65;99395.75;5083656;28;20016;-71
2023/04/02 03:13:49;;;;;;;3.70;2.50;;;;;;;10.01;91.26;99394.13;5066210;28;20031;-70
2023/04/02 03:16:28;;;;;;;3.67;2.25;;;;;;;10.14;91.06;99416.06;5084201;28;20541;-70
2023/04/02 03:19:01;;;;;;;5.13;2.47;;;;;;;10.00;92.13;99407.69;5087118;28;20028;-69
2023/04/02 03:21:39;;;;;;;3.15;1.95;;;;;;;9.98;92.05;99410.50;5088194;28;20138;-69
2023/04/02 03:24:23;;;;;;;1.90;1.50;;;;;;;10.08;91.84;99410.44;5069511;28;20023;-69
2023/04/02 03:26:57;;;;;;;1.47;1.37;;;;;;;10.01;91.77;99395.97;5087824;28;20032;-69
2023/04/02 03:29:32;;;;;;;1.65;1.10;;;;;;;10.01;92.14;99410.22;5086688;28;20287;-69
2023/04/02 03:32:11;;;;;;;1.73;1.63;;;;;;;10.06;91.94;99412.44;5068521;28;20061;-69
2023/04/02 03:34:46;;;;;;;1.73;1.63;;;;;;;9.98;92.36;99415.88;5068640;28;20032;-69
2023/04/02 03:37:43;;;;;;;1.20;1.10;;;;;;;9.86;92.78;99411.72;5087558;28;20042;-69
2023/04/02 03:40:21;;;;;;;1.33;1.10;;;;;;;9.75;93.98;99409.28;5086897;28;20016;-69
2023/04/02 03:43:15;;;;;;;1.27;1.17;;;;;;;9.61;93.95;99392.88;5088344;28;20039;-69
2023/04/02 03:45:50;;;;;;;1.27;1.08;;;;;;;9.62;94.29;99392.75;5083058;28;20078;-69
2023/04/02 03:48:37;;;;;;;1.95;1.50;;;;;;;9.63;94.68;99410.47;5087102;28;20028;-69
2023/04/02 03:51:16;;;;;;;1.25;1.15;;;;;;;9.86;93.56;99410.91;5087343;28;20040;-69
2023/04/02 03:53:43;;;;;;;5.18;1.13;;;;;;;9.50;93.90;99366.31;5069212;28;20119;-69
2023/04/02 03:56:21;;;;;;;2.08;1.20;;;;;;;9.82;93.61;99398.78;5087371;28;20034;-70
2023/04/02 03:59:03;;;;;;;1.98;1.52;;;;;;;9.84;93.80;99411.06;5087037;28;20135;-70
2023/04/02 04:01:36;;;;;;;2.00;1.23;;;;;;;9.86;94.30;99422.44;5069935;28;20034;-69
2023/04/02 04:04:13;;;;;;;1.10;1.00;;;;;;;9.79;93.72;99399.94;5087534;28;20368;-69
2023/04/02 04:06:45;;;;;;;1.33;1.23;;;;;;;9.94;93.58;99427.03;5087499;28;20028;-69
2023/04/02 04:09:30;;;;;;;3.05;1.50;;;;;;;9.87;93.53;99416.06;5086704;28;20384;-70
2023/04/02 04:12:32;;;;;;;1.58;1.30;;;;;;;9.95;93.56;99437.59;5087509;28;20431;-71
2023/04/02 04:15:07;;;;;;;6.20;1.88;;;;;;;9.95;93.66;99447.47;5067981;28;20032;-70
2023/04/02 04:17:50;;;;;;;2.35;1.33;;;;;;;9.80;94.23;99424.91;5087370;28;20457;-70
2023/04/02 04:20:33;;;;;;;2.00;1.38;;;;;;;9.92;94.03;99447.75;5069657;28;20039;-70
2023/04/02 04:23:29;;;;;;;1.30;1.20;;;;;;;9.94;94.15;99452.00;5087107;28;20055;-70
2023/04/02 04:26:42;;;;;;;1.63;1.25;;;;;;;9.87;94.49;99450.88;5086513;28;20283;-69
2023/04/02 04:29:46;;;;;;;1.40;1.30;;;;;;;9.75;95.24;99443.22;5061133;28;20067;-70
2023/04/02 04:32:33;;;;;;;2.45;1.40;;;;;;;9.85;95.02;99455.56;5060837;28;20119;-70
2023/04/02 04:35:07;;;;;;;2.65;1.50;;;;;;;9.89;93.93;99442.69;5085986;28;20387;-70
2023/04/02 04:37:37;;;;;;;2.03;1.58;;;;;;;9.92;94.19;99471.88;5085020;28;20095;-70
2023/04/02 04:40:19;;;;;;;2.60;1.95;;;;;;;10.00;93.60;99463.94;5085529;28;20040;-69
2023/04/02 04:42:47;;;;;;;3.15;1.63;;;;;;;9.96;93.78;99478.63;5086395;28;20045;-70
2023/04/02 04:45:26;;;;;;;4.65;2.00;;;;;;;9.83;93.85;99451.38;5067704;28;20023;-69
2023/04/02 04:48:15;;;;;;;1.98;1.77;;;;;;;9.77;93.77;99454.66;5084527;28;20027;-70
2023/04/02 04:50:46;;;;;;;2.88;1.80;;;;;;;9.85;94.50;99476.16;5087600;28;20032;-69
2023/04/02 04:53:20;;;;;;;1.92;1.45;;;;;;;9.86;93.96;99480.53;5086653;28;20044;-70
2023/04/02 04:55:48;;;;;;;1.73;1.63;;;;;;;9.84;93.63;99467.28;5068539;28;20020;-70
2023/04/02 04:58:18;;;;;;;2.08;1.35;;;;;;;9.67;93.34;99435.94;5086686;28;20031;-69
2023/04/02 05:01:01;;;;;;;2.03;1.67;;;;;;;9.95;93.12;99472.41;5086322;28;20484;-70
2023/04/02 05:03:37;;;;;;;1.80;1.27;;;;;;;9.92;93.25;99480.75;5086133;28;20586;-69
2023/04/02 05:06:07;;;;;;;1.50;1.17;;;;;;;10.03;91.87;99477.03;5068416;28;20097;-70
2023/04/02 05:08:37;;;;;;;3.05;1.67;;;;;;;9.93;92.00;99462.84;5069056;28;20059;-70
2023/04/02 05:11:14;;;;;;;3.30;1.70;;;;;;;9.82;92.29;99452.34;5086206;28;20020;-70
2023/04/02 05:13:57;;;;;;;1.60;1.50;;;;;;;9.91;92.85;99478.22;5086425;28;20024;-70
2023/04/02 05:16:23;;;;;;;1.70;1.23;;;;;;;9.86;92.81;99475.19;5086815;28;20086;-71
2023/04/02 05:19:02;;;;;;;1.60;1.50;;;;;;;9.88;93.27;99476.69;5086145;28;20479;-70
2023/04/02 05:21:56;;;;;;;4.60;1.95;;;;;;;9.84;92.35;99477.16;5086049;28;20792;-70
2023/04/02 05:24:52;;;;;;;2.08;1.70;;;;;;;9.96;92.25;99487.47;5067319;28;20044;-71
2023/04/02 05:27:35;;;;;;;2.67;2.25;;;;;;;9.91;92.95;99483.56;5083658;28;20036;-69
2023/04/02 05:30:22;;;;;;;4.55;2.53;;;;;;;9.99;92.51;99487.19;5067755;28;20028;-70
2023/04/02 05:33:03;;;;;;;2.03;1.63;;;;;;;9.96;91.99;99466.06;5082928;28;20486;-70
2023/04/02 05:35:43;;;;;;;2.33;1.52;;;;;;;10.00;92.28;99486.19;5084340;28;20035;-73
2023/04/02 05:38:20;;;;;;;1.52;1.42;;;;;;;9.78;92.92;99467.03;5080241;28;20028;-70
2023/04/02 05:40:50;;;;;;;2.20;1.55;;;;;;;10.02;92.51;99486.88;5066290;28;20069;-69
2023/04/02 05:43:19;;;;;;;1.85;1.58;;;;;;;10.11;91.12;99485.16;5085190;28;20066;-70
2023/04/02 05:45:52;;;;;;;2.38;1.83;;;;;;;10.01;91.28;99466.47;5085011;28;20073;-70
2023/04/02 05:48:24;;;;;;;1.65;1.55;;;;;;;9.99;91.49;99481.81;5066723;28;20052;-70
2023/04/02 05:50:53;;;;;;;1.55;1.40;;;;;;;10.03;91.48;99491.25;5085329;28;20015;-70
2023/04/02 05:53:30;;;;;;;1.55;1.45;;;;;;;10.12;91.54;99482.34;5084992;28;20345;-70
2023/04/02 05:56:22;;;;;;;1.88;1.60;;;;;;;10.35;90.27;99493.47;5083057;28;20488;-70
2023/04/02 05:59:10;;;;;;;5.20;2.03;;;;;;;10.30;91.04;99477.84;5066201;28;20116;-70
2023/04/02 06:01:48;;;;;;;3.88;1.88;;;;;;;10.59;88.13;99469.53;5085483;28;20032;-70
2023/04/02 06:04:29;;;;;;;2.78;1.90;;;;;;;10.79;87.60;99492.47;5084283;28;20097;-70
2023/04/02 06:07:11;;;;;;;3.50;1.88;;;;;;;10.76;87.97;99482.91;5066039;28;20494;-72
2023/04/02 06:09:43;;;;;;;2.30;2.08;;;;;;;10.85;87.55;99475.75;5082444;28;20089;-70
2023/04/02 06:12:41;;;;;;;2.45;1.77;;;;;;;10.96;88.67;99472.81;5084551;28;20065;-70
2023/04/02 06:15:13;;;;;;;2.20;1.95;;;;;;;11.29;86.94;99486.28;5082345;28;20085;-71
2023/04/02 06:17:52;;;;;;;2.22;1.20;;;;;;;11.43;85.86;99474.97;5084484;28;20615;-71
2023/04/02 06:20:20;;;;;;;3.72;1.55;;;;;;;11.71;83.25;99497.09;5084186;28;20107;-70
2023/04/02 06:22:55;;;;;;;1.42;1.33;;;;;;;11.89;80.79;99487.06;5066190;28;20070;-70
2023/04/02 06:25:32;;;;;;;2.78;1.60;;;;;;;12.07;81.73;99509.31;5083454;28;20043;-70
2023/04/02 06:28:00;;;;;;;2.90;2.22;;;;;;;12.20;79.08;99495.38;5083494;28;20027;-71
2023/04/02 06:30:37;;;;;;;2.50;1.90;;;;;;;12.21;77.86;99470.19;5082131;28;20140;-70
2023/04/02 06:33:03;;;;;;;1.98;1.67;;;;;;;12.53;76.99;99499.81;5064326;28;20034;-75
2023/04/02 06:35:29;;;;;;;2.67;1.77;;;;;;;12.67;76.82;99510.75;5084815;28;20099;-74
2023/04/02 06:37:59;;;;;;;3.58;1.60;;;;;;;13.02;74.22;99517.66;5085360;28;20455;-75
2023/04/02 06:40:30;;;;;;;2.33;1.80;;;;;;;12.99;74.98;99520.69;5085001;28;20453;-75
2023/04/02 06:42:59;;;;;;;1.95;1.60;;;;;;;13.08;75.96;99511.59;5085252;28;20186;-75
2023/04/02 06:45:30;;;;;;;1.83;1.60;;;;;;;13.34;74.04;99514.91;5067376;28;20077;-75
2023/04/02 06:47:58;;;;;;;3.70;2.00;;;;;;;13.39;73.44;99504.47;5085342;28;20031;-75
2023/04/02 06:50:39;;;;;;;2.35;1.92;;;;;;;13.84;69.27;99518.16;5067179;28;20028;-75
2023/04/02 06:53:10;;;;;;;3.17;1.60;;;;;;;13.61;70.71;99517.22;5083809;28;20039;-71
2023/04/02 06:56:02;;;;;;;2.60;2.08;;;;;;;13.65;70.55;99521.25;5084720;28;20036;-70
2023/04/02 06:58:28;;;;;;;2.20;1.63;;;;;;;13.51;70.09;99509.31;5064190;28;20038;-70
2023/04/02 07:00:54;;;;;;;1.85;1.48;;;;;;;13.68;70.18;99537.88;5066417;28;20433;-75
2023/04/02 07:03:29;;;;;;;2.33;1.73;;;;;;;13.70;70.47;99535.88;5066765;28;20096;-75
2023/04/02 07:05:55;;;;;;;5.82;1.98;;;;;;;14.07;69.18;99537.91;5085144;28;20066;-75
2023/04/02 07:08:22;;;;;;;1.45;1.35;;;;;;;14.28;67.69;99529.25;5066990;28;20048;-75
2023/04/02 07:10:47;;;;;;;1.85;1.30;;;;;;;14.42;66.72;99521.25;5067022;28;20028;-76
2023/04/02 07:13:18;;;;;;;1.55;1.25;;;;;;;14.63;66.94;99521.41;5066289;28;20032;-75
2023/04/02 07:15:46;;;;;;;3.60;1.45;;;;;;;14.94;66.65;99549.19;5066501;28;20541;-75
2023/04/02 07:18:22;;;;;;;1.35;1.23;;;;;;;15.29;63.86;99551.22;5084390;28;20027;-74
2023/04/02 07:20:47;;;;;;;1.52;1.10;;;;;;;15.49;63.26;99548.88;5084114;28;20035;-74
2023/04/02 07:23:13;;;;;;;2.22;1.45;;;;;;;15.70;62.51;99557.94;5084460;28;20024;-75
2023/04/02 07:25:38;;;;;;;1.90;1.30;;;;;;;15.97;60.48;99539.38;5084832;28;20357;-75
2023/04/02 07:28:05;;;;;;;2.25;1.67;;;;;;;16.01;59.67;99557.75;5068311;28;20123;-74
2023/04/02 07:30:30;;;;;;;3.70;2.10;;;;;;;16.01;60.02;99571.28;5084261;28;20024;-74
2023/04/02 07:32:56;;;;;;;4.07;1.70;;;;;;;16.01;58.21;99570.44;5081785;28;20046;-74
2023/04/02 07:35:22;;;;;;;3.78;2.47;;;;;;;15.62;60.14;99579.66;5085021;28;20064;-74
2023/04/02 07:37:47;;;;;;;2.30;2.10;;;;;;;15.45;61.77;99575.44;5066443;28;20031;-74
2023/04/02 07:40:19;;;;;;;2.17;1.98;;;;;;;15.57;60.63;99582.06;5084681;28;20028;-74
2023/04/02 07:42:45;;;;;;;2.88;2.20;;;;;;;15.55;61.02;99586.00;5081882;28;20032;-74
2023/04/02 07:45:11;;;;;;;2.92;1.75;;;;;;;15.48;60.31;99571.53;5084653;28;20020;-74
2023/04/02 07:47:37;;;;;;;2.13;1.92;;;;;;;15.68;60.84;99591.59;5083308;28;20111;-74
2023/04/02 07:50:02;;;;;;;1.70;1.58;;;;;;;15.82;61.55;99593.47;5083419;28;20095;-74
2023/04/02 07:52:28;;;;;;;1.98;1.80;;;;;;;16.07;60.77;99591.31;5084110;28;20040;-75
2023/04/02 07:54:53;;;;;;;2.00;1.77;;;;;;;16.31;58.64;99577.50;5085316;28;20032;-75
2023/04/02 07:57:19;;;;;;;3.10;1.80;;;;;;;16.64;57.91;99595.84;5088044;28;20077;-75
2023/04/02 07:59:46;;;;;;;3.55;2.15;;;;;;;16.75;58.67;99595.34;5067118;28;20043;-75
2023/04/02 08:02:22;;;;;;;3.22;2.05;;;;;;;17.03;56.60;99595.44;5066218;28;20738;-75
2023/04/02 08:04:50;;;;;;;3.70;2.15;;;;;;;17.37;56.19;99585.53;5077688;28;20095;-74
2023/04/02 08:07:17;;;;;;;3.47;1.98;;;;;;;18.07;54.11;99596.31;5086368;28;20039;-75
2023/04/02 08:09:43;;;;;;;2.83;2.03;;;;;;;18.66;51.74;99586.56;5088778;28;20031;-74
2023/04/02 08:12:12;;;;;;;1.80;1.70;;;;;;;19.35;49.45;99587.97;5088520;28;20044;-75
2023/04/02 08:14:38;;;;;;;3.28;2.03;;;;;;;19.89;48.53;99583.16;5089257;28;20503;-75
2023/04/02 08:17:03;;;;;;;3.55;1.98;;;;;;;20.81;46.37;99588.28;5087999;28;20036;-75
2023/04/02 08:19:29;;;;;;;1.85;1.75;;;;;;;21.61;43.71;99581.03;5062550;28;20049;-75
2023/04/02 08:21:55;;;;;;;2.88;1.88;;;;;;;22.48;42.09;99578.06;5070128;28;20046;-75
2023/04/02 08:24:21;;;;;;;2.30;2.10;;;;;;;24.04;38.60;99594.03;5089281;28;20107;-74
2023/04/02 08:26:48;;;;;;;2.25;1.88;;;;;;;24.17;38.18;99583.66;5088972;28;20644;-73
2023/04/02 08:29:13;;;;;;;3.58;1.92;;;;;;;25.35;35.97;99570.19;5086414;28;20063;-74
2023/04/02 08:31:39;;;;;;;1.83;1.60;;;;;;;25.57;34.98;99571.94;5088331;28;20382;-73
2023/04/02 08:34:05;;;;;;;4.18;2.13;;;;;;;25.30;35.97;99570.06;5087867;28;20059;-74
2023/04/02 08:36:37;;;;;;;2.20;1.70;;;;;;;25.66;35.33;99575.13;5071121;28;20521;-74
2023/04/02 08:39:04;;;;;;;3.45;1.83;;;;;;;26.00;35.02;99574.03;5070667;28;20129;-74
2023/04/02 08:41:40;;;;;;;2.97;1.38;;;;;;;27.28;32.76;99574.31;5070910;28;20016;-74
2023/04/02 08:44:09;;;;;;;3.97;1.40;;;;;;;27.36;32.54;99580.19;5087757;28;20024;-74
2023/04/02 08:46:46;;;;;;;1.35;1.25;;;;;;;27.57;31.70;99578.44;5070180;28;20387;-74
2023/04/02 08:49:15;;;;;;;2.72;1.63;;;;;;;27.33;32.45;99568.84;5088066;28;20032;-74
2023/04/02 08:51:41;;;;;;;2.85;1.42;;;;;;;27.25;32.28;99564.66;5088618;28;20024;-73
2023/04/02 08:54:13;;;;;;;1.45;1.20;;;;;;;27.52;31.50;99584.75;5087898;28;20048;-74
2023/04/02 08:56:43;;;;;;;1.37;1.27;;;;;;;27.30;31.87;99583.13;5069081;28;20046;-74
2023/04/02 08:59:24;;;;;;;1.58;1.23;;;;;;;26.72;32.41;99572.84;5069104;28;20055;-74
2023/04/02 09:01:50;;;;;;;1.30;1.20;;;;;;;26.70;32.38;99582.44;5087849;28;20066;-74
2023/04/02 09:04:20;;;;;;;1.42;1.33;;;;;;;27.09;32.44;99587.59;5068249;28;20043;-73
2023/04/02 09:06:47;;;;;;;1.65;1.50;;;;;;;27.35;31.68;99577.69;5088710;28;20020;-70
2023/04/02 09:09:16;;;;;;;2.60;1.60;;;;;;;27.59;31.64;99579.00;5086978;28;20032;-69
2023/04/02 09:12:03;;;;;;;2.33;1.40;;;;;;;28.55;30.09;99586.88;5086755;28;20496;-69
2023/04/02 09:14:40;;;;;;;1.63;1.30;;;;;;;28.07;30.25;99593.47;5079643;28;20031;-69
2023/04/02 09:17:25;;;;;;;1.83;1.10;;;;;;;27.09;31.58;99584.00;5085848;28;20092;-70
2023/04/02 09:19:56;;;;;;;2.17;1.20;;;;;;;27.29;31.58;99598.84;5074021;28;20595;-70
2023/04/02 09:22:28;;;;;;;1.88;1.25;;;;;;;28.01;30.86;99601.97;5068513;28;20040;-70
2023/04/02 09:24:56;;;;;;;1.52;1.30;;;;;;;28.28;30.52;99586.97;5068468;28;20695;-70
2023/04/02 09:27:27;;;;;;;1.75;1.10;;;;;;;29.20;28.53;99595.44;5086622;28;20034;-70
2023/04/02 09:30:14;;;;;;;1.65;1.35;;;;;;;29.49;28.56;99598.50;5085617;28;20024;-69
2023/04/02 09:32:50;;;;;;;1.58;1.20;;;;;;;29.72;28.45;99598.00;5068693;28;20032;-70
2023/04/02 09:35:22;;;;;;;4.05;1.10;;;;;;;28.97;28.20;99595.88;5086435;28;20849;-69
2023/04/02 09:38:16;;;;;;;1.10;1.00;;;;;;;28.65;28.28;99599.88;5067610;28;20067;-70
2023/04/02 09:40:54;;;;;;;1.58;1.00;;;;;;;28.31;29.04;99597.47;5086368;28;20453;-70
2023/04/02 09:43:23;;;;;;;1.40;1.10;;;;;;;27.83;29.69;99600.41;5067619;28;20465;-70
2023/04/02 09:46:04;;;;;;;1.75;1.42;;;;;;;26.44;32.06;99598.59;5067551;28;20431;-69
2023/04/02 09:48:33;;;;;;;1.52;1.10;;;;;;;25.72;33.30;99598.81;5086029;28;20044;-68
2023/04/02 09:51:03;;;;;;;1.35;1.13;;;;;;;26.65;31.49;99598.88;5085588;28;20066;-70
2023/04/02 09:53:33;;;;;;;2.70;1.35;;;;;;;26.72;30.34;99588.53;5086050;28;20112;-70
2023/04/02 09:56:17;;;;;;;1.10;1.00;;;;;;;25.39;32.32;99585.91;5067401;28;20047;-69
2023/04/02 09:58:45;;;;;;;2.53;1.00;;;;;;;24.58;33.48;99592.75;5085600;28;20561;-70
2023/04/02 10:01:31;;;;;;;1.20;1.05;;;;;;;23.72;34.30;99581.72;5085730;28;20043;-71
2023/04/02 10:03:58;;;;;;;1.88;1.40;;;;;;;23.36;35.15;99599.19;5084711;28;20028;-70
2023/04/02 10:06:26;;;;;;;2.90;1.40;;;;;;;23.08;35.22;99590.72;5067032;28;20107;-70
2023/04/02 10:08:51;;;;;;;1.88;1.17;;;;;;;22.14;36.71;99604.09;5085022;28;20047;-70
2023/04/02 10:11:37;;;;;;;1.48;1.17;;;;;;;21.63;39.19;99605.38;5085013;28;20035;-70
2023/04/02 10:14:14;;;;;;;2.33;1.65;;;;;;;21.43;43.75;99613.72;5083912;28;20095;-69
2023/04/02 10:17:05;;;;;;;3.33;1.95;;;;;;;20.42;49.30;99618.44;5086003;28;20039;-70
2023/04/02 10:19:37;;;;;;;10.07;2.47;;;;;;;19.87;55.00;99626.06;5084330;28;20042;-68
2023/04/02 10:22:11;;;;;;;4.45;2.55;;;;;;;19.05;58.17;99602.97;5085200;28;20024;-68
2023/04/02 10:24:36;;;;;;;3.85;2.20;;;;;;;18.39;59.30;99606.53;5085401;28;20044;-68
2023/04/02 10:27:27;;;;;;;4.05;2.30;;;;;;;17.92;60.78;99611.84;5083167;28;20039;-68
2023/04/02 10:30:01;;;;;;;5.63;2.58;;;;;;;17.55;63.86;99607.63;5082436;28;20093;-68
2023/04/02 10:32:32;;;;;;;3.10;2.30;;;;;;;17.41;65.52;99607.69;5084597;28;20039;-70
2023/04/02 10:35:18;;;;;;;3.25;2.03;;;;;;;17.37;67.54;99618.06;5066462;28;20126;-69
2023/04/02 10:38:06;;;;;;;5.13;2.33;;;;;;;17.34;64.73;99612.19;5085230;28;20523;-69
2023/04/02 10:40:37;;;;;;;3.35;2.05;;;;;;;17.65;65.16;99604.56;5096080;28;20065;-69
2023/04/02 10:43:25;;;;;;;5.00;2.42;;;;;;;17.81;64.93;99612.41;5085171;28;20032;-69
2023/04/02 10:45:59;;;;;;;3.13;2.10;;;;;;;18.06;59.02;99611.72;5084413;28;20036;-69
2023/04/02 10:48:46;;;;;;;2.95;2.00;;;;;;;17.99;60.08;99613.56;5087860;28;20736;-69
2023/04/02 10:51:40;;;;;;;1.85;1.75;;;;;;;18.08;60.66;99613.44;5086181;28;20044;-69
2023/04/02 10:54:08;;;;;;;3.25;2.33;;;;;;;18.10;59.38;99618.44;5067067;28;20047;-70
2023/04/02 10:56:35;;;;;;;3.67;2.60;;;;;;;17.93;60.47;99614.38;5090880;28;20043;-68
2023/04/02 10:59:17;;;;;;;6.20;2.10;;;;;;;17.53;62.53;99601.56;5093382;28;20059;-67
2023/04/02 11:01:45;;;;;;;2.90;1.70;;;;;;;17.30;63.25;99595.50;5088865;28;20055;-68
2023/04/02 11:04:26;;;;;;;4.30;2.00;;;;;;;17.18;61.44;99602.47;5085612;28;20094;-68
2023/04/02 11:07:01;;;;;;;3.42;2.10;;;;;;;17.09;63.42;99600.09;5080655;28;20039;-68
2023/04/02 11:09:30;;;;;;;1.95;1.73;;;;;;;17.09;62.22;99608.22;5051085;28;20374;-67
2023/04/02 11:11:58;;;;;;;2.90;1.95;;;;;;;17.06;62.19;99609.41;5084559;28;20062;-67
2023/04/02 11:14:26;;;;;;;3.10;1.42;;;;;;;17.11;61.68;99612.41;5066936;28;20035;-68
2023/04/02 11:16:54;;;;;;;1.90;1.70;;;;;;;17.13;61.32;99612.22;5084636;28;20048;-68
2023/04/02 11:19:31;;;;;;;2.05;1.48;;;;;;;17.15;63.48;99615.56;5084966;28;20081;-68
2023/04/02 11:22:00;;;;;;;2.50;1.92;;;;;;;17.13;66.20;99613.06;5083720;28;20032;-67
2023/04/02 11:24:30;;;;;;;3.58;2.15;;;;;;;17.11;66.52;99625.09;5085787;28;20035;-67
2023/04/02 11:27:11;;;;;;;2.42;1.52;;;;;;;17.07;65.64;99623.81;5085417;28;20032;-67
2023/04/02 11:29:39;;;;;;;4.20;3.10;;;;;;;17.04;68.82;99630.47;5070745;28;20373;-67
2023/04/02 11:32:20;;;;;;;8.93;5.68;;;;;;;16.86;68.18;99623.81;5084935;28;20024;-67
2023/04/02 11:34:45;;;;;;;7.25;4.45;;;;;;;16.62;70.07;99621.44;5072959;28;20020;-67
2023/04/02 11:37:33;;;;;;;8.45;4.45;;;;;;;16.28;71.63;99624.72;5093902;28;20024;-68
2023/04/02 11:40:37;;;;;;;6.35;3.10;;;;;;;15.98;76.71;99619.47;5097897;28;20119;-67
2023/04/02 11:43:32;;;;;;;7.18;2.88;;;;;;;15.76;79.18;99629.34;5040307;28;20060;-67
2023/04/02 11:46:15;;;;;;;7.93;3.85;;;;;;;15.61;77.80;99633.91;5095695;28;20073;-67
2023/04/02 11:48:41;;;;;;;11.32;3.90;;;;;;;15.31;74.68;99637.50;5097966;28;20062;-67
2023/04/02 11:51:22;;;;;;;10.18;3.70;;;;;;;14.89;77.24;99643.38;5103649;28;20134;-66
2023/04/02 11:53:48;;;;;;;4.97;2.85;;;;;;;14.55;81.72;99648.31;5087984;28;20047;-67
2023/04/02 11:56:32;;;;;;;6.10;3.28;;;;;;;14.34;84.56;99652.59;5069805;28;20039;-67
2023/04/02 11:59:16;;;;;;;8.18;3.45;;;;;;;14.00;86.57;99639.41;5087185;28;20028;-67
2023/04/02 12:01:59;;;;;;;22.00;10.00;;;;;;;13.78;89.26;99634.72;5074065;28;20111;-67
2023/04/02 12:04:44;;;;;;;40.03;25.23;;;;;;;13.61;88.51;99635.78;5088066;28;20036;-67
2023/04/02 12:07:18;;;;;;;;;;;;;;;13.51;87.71;99627.84;5088508;28;20028;-67
2023/04/02 12:09:56;;;;;;;8.25;4.20;;;;;;;13.42;83.90;99630.75;5087403;28;19930;-66
2023/04/02 12:12:25;;;;;;;7.72;3.90;;;;;;;13.33;87.16;99634.44;5069583;28;20048;-66